« Back
NWS Peachtree City, Ga » Text Product » AHN Terminal Aerodrome Forecast


Printer-friendly Version
Current Version              Previous Versions:   1  2  3  4  5  6  7  8  9  

Terminal Aerodrome Forecast

704
FTAK31 PAJN 281700
TAFAHN
TAF
PAHN 281737Z 2818/0118 VRB04KT P6SM BKN140
     FM282100 12005KT P6SM FEW050 SCT110
     FM010800 30008KT P6SM BKN050
     FM011500 31014KT P6SM SCT060 BKN150
      AMD LTD TO CLD VIS AND WIND=



USA.gov is the U.S. government's official web portal to all federal, state and local government web resources and services.